sensor_id;sensor_type;location;lat;lon;timestamp;temperature;humidity
43858;DHT22;29507;51.284;5.758;2023-04-25T00:02:24;5.20;99.90
43858;DHT22;29507;51.284;5.758;2023-04-25T00:04:50;5.30;99.90
43858;DHT22;29507;51.284;5.758;2023-04-25T00:07:16;5.30;99.90
43858;DHT22;29507;51.284;5.758;2023-04-25T00:09:42;5.30;99.90
43858;DHT22;29507;51.284;5.758;2023-04-25T00:12:08;5.30;99.90
43858;DHT22;29507;51.284;5.758;2023-04-25T00:14:33;5.30;99.90
43858;DHT22;29507;51.284;5.758;2023-04-25T00:16:59;5.30;99.90
43858;DHT22;29507;51.284;5.758;2023-04-25T00:19:26;5.30;99.90
43858;DHT22;29507;51.284;5.758;2023-04-25T00:21:54;5.30;99.90
43858;DHT22;29507;51.284;5.758;2023-04-25T00:24:20;5.30;99.90
43858;DHT22;29507;51.284;5.758;2023-04-25T00:26:45;5.20;99.90
43858;DHT22;29507;51.284;5.758;2023-04-25T00:29:11;5.20;99.90
43858;DHT22;29507;51.284;5.758;2023-04-25T00:31:36;5.20;99.90
43858;DHT22;29507;51.284;5.758;2023-04-25T00:34:02;5.10;99.90
43858;DHT22;29507;51.284;5.758;2023-04-25T00:36:27;5.10;99.90
43858;DHT22;29507;51.284;5.758;2023-04-25T00:38:53;5.10;99.90
43858;DHT22;29507;51.284;5.758;2023-04-25T00:41:20;5.00;99.90
43858;DHT22;29507;51.284;5.758;2023-04-25T00:43:46;4.90;99.90
43858;DHT22;29507;51.284;5.758;2023-04-25T00:46:13;4.90;99.90
43858;DHT22;29507;51.284;5.758;2023-04-25T00:48:38;4.80;99.90
43858;DHT22;29507;51.284;5.758;2023-04-25T00:51:04;4.80;99.90
43858;DHT22;29507;51.284;5.758;2023-04-25T00:53:30;4.70;99.90
43858;DHT22;29507;51.284;5.758;2023-04-25T00:55:57;4.60;99.90
43858;DHT22;29507;51.284;5.758;2023-04-25T00:58:23;4.50;99.90
43858;DHT22;29507;51.284;5.758;2023-04-25T01:00:50;4.40;99.90
43858;DHT22;29507;51.284;5.758;2023-04-25T01:03:17;4.30;99.90
43858;DHT22;29507;51.284;5.758;2023-04-25T01:05:45;4.20;99.90
43858;DHT22;29507;51.284;5.758;2023-04-25T01:08:10;4.10;99.90
43858;DHT22;29507;51.284;5.758;2023-04-25T01:10:36;4.10;99.90
43858;DHT22;29507;51.284;5.758;2023-04-25T01:13:02;4.10;99.90
43858;DHT22;29507;51.284;5.758;2023-04-25T01:15:28;4.00;99.90
43858;DHT22;29507;51.284;5.758;2023-04-25T01:17:54;4.00;99.90
43858;DHT22;29507;51.284;5.758;2023-04-25T01:20:22;3.90;99.90
43858;DHT22;29507;51.284;5.758;2023-04-25T01:22:49;3.90;99.90
43858;DHT22;29507;51.284;5.758;2023-04-25T01:25:15;3.90;99.90
43858;DHT22;29507;51.284;5.758;2023-04-25T01:27:42;3.90;99.90
43858;DHT22;29507;51.284;5.758;2023-04-25T01:30:08;3.90;99.90
43858;DHT22;29507;51.284;5.758;2023-04-25T01:32:34;3.80;99.90
43858;DHT22;29507;51.284;5.758;2023-04-25T01:35:08;3.70;99.90
43858;DHT22;29507;51.284;5.758;2023-04-25T01:37:39;3.60;99.90
43858;DHT22;29507;51.284;5.758;2023-04-25T01:40:06;3.50;99.90
43858;DHT22;29507;51.284;5.758;2023-04-25T01:42:32;3.50;99.90
43858;DHT22;29507;51.284;5.758;2023-04-25T01:44:58;3.50;99.90
43858;DHT22;29507;51.284;5.758;2023-04-25T01:47:24;3.40;99.90
43858;DHT22;29507;51.284;5.758;2023-04-25T01:49:50;3.40;99.90
43858;DHT22;29507;51.284;5.758;2023-04-25T01:52:15;3.30;99.90
43858;DHT22;29507;51.284;5.758;2023-04-25T01:54:41;3.20;99.90
43858;DHT22;29507;51.284;5.758;2023-04-25T01:57:12;3.20;99.90
43858;DHT22;29507;51.284;5.758;2023-04-25T01:59:38;3.20;99.90
43858;DHT22;29507;51.284;5.758;2023-04-25T02:02:03;3.20;99.90
43858;DHT22;29507;51.284;5.758;2023-04-25T02:04:30;3.30;99.90
43858;DHT22;29507;51.284;5.758;2023-04-25T02:06:56;3.30;99.90
43858;DHT22;29507;51.284;5.758;2023-04-25T02:09:22;3.30;99.90
43858;DHT22;29507;51.284;5.758;2023-04-25T02:11:47;3.40;99.90
43858;DHT22;29507;51.284;5.758;2023-04-25T02:14:13;3.50;99.90
43858;DHT22;29507;51.284;5.758;2023-04-25T02:16:39;3.50;99.90
43858;DHT22;29507;51.284;5.758;2023-04-25T02:19:05;3.60;99.90
43858;DHT22;29507;51.284;5.758;2023-04-25T02:21:31;3.60;99.90
43858;DHT22;29507;51.284;5.758;2023-04-25T02:23:57;3.60;99.90
43858;DHT22;29507;51.284;5.758;2023-04-25T02:26:23;3.60;99.90
43858;DHT22;29507;51.284;5.758;2023-04-25T02:28:49;3.50;99.90
43858;DHT22;29507;51.284;5.758;2023-04-25T02:31:15;3.50;99.90
43858;DHT22;29507;51.284;5.758;2023-04-25T02:33:41;3.60;99.90
43858;DHT22;29507;51.284;5.758;2023-04-25T02:36:07;3.60;99.90
43858;DHT22;29507;51.284;5.758;2023-04-25T02:38:33;3.70;99.90
43858;DHT22;29507;51.284;5.758;2023-04-25T02:40:58;3.60;99.90
43858;DHT22;29507;51.284;5.758;2023-04-25T02:43:24;3.60;99.90
43858;DHT22;29507;51.284;5.758;2023-04-25T02:45:50;3.60;99.90
43858;DHT22;29507;51.284;5.758;2023-04-25T02:48:15;3.60;99.90
43858;DHT22;29507;51.284;5.758;2023-04-25T02:50:41;3.60;99.90
43858;DHT22;29507;51.284;5.758;2023-04-25T02:53:06;3.70;99.90
43858;DHT22;29507;51.284;5.758;2023-04-25T02:55:32;3.80;99.90
43858;DHT22;29507;51.284;5.758;2023-04-25T02:57:58;3.90;99.90
43858;DHT22;29507;51.284;5.758;2023-04-25T03:00:24;4.10;99.90
43858;DHT22;29507;51.284;5.758;2023-04-25T03:02:50;4.10;99.90
43858;DHT22;29507;51.284;5.758;2023-04-25T03:05:16;4.10;99.90
43858;DHT22;29507;51.284;5.758;2023-04-25T03:07:42;4.10;99.90
43858;DHT22;29507;51.284;5.758;2023-04-25T03:10:09;4.10;99.90
43858;DHT22;29507;51.284;5.758;2023-04-25T03:12:35;4.10;99.90
43858;DHT22;29507;51.284;5.758;2023-04-25T03:15:01;4.20;99.90
43858;DHT22;29507;51.284;5.758;2023-04-25T03:17:26;4.20;99.90
43858;DHT22;29507;51.284;5.758;2023-04-25T03:19:52;4.20;99.90
43858;DHT22;29507;51.284;5.758;2023-04-25T03:22:18;4.30;99.90
43858;DHT22;29507;51.284;5.758;2023-04-25T03:24:43;4.30;99.90
43858;DHT22;29507;51.284;5.758;2023-04-25T03:27:09;4.40;99.90
43858;DHT22;29507;51.284;5.758;2023-04-25T03:29:35;4.40;99.90
43858;DHT22;29507;51.284;5.758;2023-04-25T03:32:00;4.30;99.90
43858;DHT22;29507;51.284;5.758;2023-04-25T03:34:26;4.30;99.90
43858;DHT22;29507;51.284;5.758;2023-04-25T03:36:51;4.30;99.90
43858;DHT22;29507;51.284;5.758;2023-04-25T03:39:17;4.30;99.90
43858;DHT22;29507;51.284;5.758;2023-04-25T03:41:43;4.30;99.90
43858;DHT22;29507;51.284;5.758;2023-04-25T03:44:08;4.30;99.90
43858;DHT22;29507;51.284;5.758;2023-04-25T03:46:34;4.30;99.90
43858;DHT22;29507;51.284;5.758;2023-04-25T03:48:59;4.30;99.90
43858;DHT22;29507;51.284;5.758;2023-04-25T03:51:25;4.30;99.90
43858;DHT22;29507;51.284;5.758;2023-04-25T03:53:52;4.30;99.90
43858;DHT22;29507;51.284;5.758;2023-04-25T03:56:17;4.30;99.90
43858;DHT22;29507;51.284;5.758;2023-04-25T03:58:43;4.30;99.90
43858;DHT22;29507;51.284;5.758;2023-04-25T04:01:09;4.30;99.90
43858;DHT22;29507;51.284;5.758;2023-04-25T04:03:35;4.30;99.90
43858;DHT22;29507;51.284;5.758;2023-04-25T04:06:02;4.30;99.90
43858;DHT22;29507;51.284;5.758;2023-04-25T04:08:29;4.40;99.90
43858;DHT22;29507;51.284;5.758;2023-04-25T04:10:56;4.30;99.90
43858;DHT22;29507;51.284;5.758;2023-04-25T04:13:22;4.30;99.90
43858;DHT22;29507;51.284;5.758;2023-04-25T04:15:47;4.30;99.90
43858;DHT22;29507;51.284;5.758;2023-04-25T04:18:13;4.30;99.90
43858;DHT22;29507;51.284;5.758;2023-04-25T04:20:39;4.20;99.90
43858;DHT22;29507;51.284;5.758;2023-04-25T04:23:04;4.20;99.90
43858;DHT22;29507;51.284;5.758;2023-04-25T04:25:31;4.10;99.90
43858;DHT22;29507;51.284;5.758;2023-04-25T04:27:56;4.10;99.90
43858;DHT22;29507;51.284;5.758;2023-04-25T04:30:23;4.10;99.90
43858;DHT22;29507;51.284;5.758;2023-04-25T04:32:50;4.10;99.90
43858;DHT22;29507;51.284;5.758;2023-04-25T04:35:16;4.10;99.90
43858;DHT22;29507;51.284;5.758;2023-04-25T04:37:41;4.20;99.90
43858;DHT22;29507;51.284;5.758;2023-04-25T04:40:07;4.20;99.90
43858;DHT22;29507;51.284;5.758;2023-04-25T04:42:34;4.30;99.90
43858;DHT22;29507;51.284;5.758;2023-04-25T04:45:01;4.40;99.90
43858;DHT22;29507;51.284;5.758;2023-04-25T04:47:28;4.40;99.90
43858;DHT22;29507;51.284;5.758;2023-04-25T04:49:56;4.50;99.90
43858;DHT22;29507;51.284;5.758;2023-04-25T04:52:22;4.60;99.90
43858;DHT22;29507;51.284;5.758;2023-04-25T04:54:48;4.60;99.90
43858;DHT22;29507;51.284;5.758;2023-04-25T04:57:13;4.70;99.90
43858;DHT22;29507;51.284;5.758;2023-04-25T04:59:39;4.70;99.90
43858;DHT22;29507;51.284;5.758;2023-04-25T05:02:05;4.70;99.90
43858;DHT22;29507;51.284;5.758;2023-04-25T05:04:30;4.80;99.90
43858;DHT22;29507;51.284;5.758;2023-04-25T05:06:56;4.80;99.90
43858;DHT22;29507;51.284;5.758;2023-04-25T05:09:21;4.90;99.90
43858;DHT22;29507;51.284;5.758;2023-04-25T05:11:51;4.90;99.90
43858;DHT22;29507;51.284;5.758;2023-04-25T05:14:17;4.90;99.90
43858;DHT22;29507;51.284;5.758;2023-04-25T05:16:43;5.00;99.90
43858;DHT22;29507;51.284;5.758;2023-04-25T05:19:09;5.00;99.90
43858;DHT22;29507;51.284;5.758;2023-04-25T05:21:34;5.00;99.90
43858;DHT22;29507;51.284;5.758;2023-04-25T05:24:01;5.10;99.90
43858;DHT22;29507;51.284;5.758;2023-04-25T05:26:26;5.10;99.90
43858;DHT22;29507;51.284;5.758;2023-04-25T05:28:59;5.20;99.90
43858;DHT22;29507;51.284;5.758;2023-04-25T05:31:25;5.30;99.90
43858;DHT22;29507;51.284;5.758;2023-04-25T05:33:50;5.30;99.90
43858;DHT22;29507;51.284;5.758;2023-04-25T05:36:17;5.40;99.90
43858;DHT22;29507;51.284;5.758;2023-04-25T05:38:43;5.50;99.90
43858;DHT22;29507;51.284;5.758;2023-04-25T05:41:08;5.50;99.90
43858;DHT22;29507;51.284;5.758;2023-04-25T05:43:34;5.60;99.90
43858;DHT22;29507;51.284;5.758;2023-04-25T05:46:00;5.60;99.90
43858;DHT22;29507;51.284;5.758;2023-04-25T05:48:26;5.70;99.90
43858;DHT22;29507;51.284;5.758;2023-04-25T05:50:51;5.70;99.90
43858;DHT22;29507;51.284;5.758;2023-04-25T05:53:18;5.80;99.90
43858;DHT22;29507;51.284;5.758;2023-04-25T05:55:43;5.80;99.90
43858;DHT22;29507;51.284;5.758;2023-04-25T05:58:09;5.80;99.90
43858;DHT22;29507;51.284;5.758;2023-04-25T06:00:35;6.00;99.90
43858;DHT22;29507;51.284;5.758;2023-04-25T06:03:00;6.00;99.90
43858;DHT22;29507;51.284;5.758;2023-04-25T06:05:26;6.20;99.90
43858;DHT22;29507;51.284;5.758;2023-04-25T06:07:55;6.50;99.90
43858;DHT22;29507;51.284;5.758;2023-04-25T06:10:27;6.70;99.90
43858;DHT22;29507;51.284;5.758;2023-04-25T06:13:01;7.00;99.90
43858;DHT22;29507;51.284;5.758;2023-04-25T06:15:34;7.10;99.90
43858;DHT22;29507;51.284;5.758;2023-04-25T06:18:00;7.20;99.90
43858;DHT22;29507;51.284;5.758;2023-04-25T06:20:32;7.20;99.90
43858;DHT22;29507;51.284;5.758;2023-04-25T06:23:00;7.40;99.90
43858;DHT22;29507;51.284;5.758;2023-04-25T06:25:26;7.40;99.90
43858;DHT22;29507;51.284;5.758;2023-04-25T06:27:52;7.50;99.90
43858;DHT22;29507;51.284;5.758;2023-04-25T06:30:17;7.70;99.90
43858;DHT22;29507;51.284;5.758;2023-04-25T06:32:47;7.90;99.90
43858;DHT22;29507;51.284;5.758;2023-04-25T06:35:13;8.10;99.90
43858;DHT22;29507;51.284;5.758;2023-04-25T06:37:38;8.20;99.90
43858;DHT22;29507;51.284;5.758;2023-04-25T06:40:05;8.30;99.90
43858;DHT22;29507;51.284;5.758;2023-04-25T06:42:30;8.40;99.90
43858;DHT22;29507;51.284;5.758;2023-04-25T06:44:56;8.40;99.90
43858;DHT22;29507;51.284;5.758;2023-04-25T06:47:21;8.40;99.90
43858;DHT22;29507;51.284;5.758;2023-04-25T06:49:47;8.40;99.90
43858;DHT22;29507;51.284;5.758;2023-04-25T06:52:13;8.40;99.90
43858;DHT22;29507;51.284;5.758;2023-04-25T06:54:38;8.50;99.90
43858;DHT22;29507;51.284;5.758;2023-04-25T06:57:04;8.70;99.90
43858;DHT22;29507;51.284;5.758;2023-04-25T06:59:29;9.20;99.90
43858;DHT22;29507;51.284;5.758;2023-04-25T07:01:55;9.50;99.90
43858;DHT22;29507;51.284;5.758;2023-04-25T07:04:21;9.80;99.90
43858;DHT22;29507;51.284;5.758;2023-04-25T07:06:46;10.00;99.90
43858;DHT22;29507;51.284;5.758;2023-04-25T07:09:13;10.20;99.90
43858;DHT22;29507;51.284;5.758;2023-04-25T07:11:39;10.10;99.90
43858;DHT22;29507;51.284;5.758;2023-04-25T07:14:04;9.90;99.90
43858;DHT22;29507;51.284;5.758;2023-04-25T07:16:30;9.80;99.90
43858;DHT22;29507;51.284;5.758;2023-04-25T07:18:55;9.80;99.90
43858;DHT22;29507;51.284;5.758;2023-04-25T07:21:21;9.70;99.90
43858;DHT22;29507;51.284;5.758;2023-04-25T07:23:47;9.50;99.90
43858;DHT22;29507;51.284;5.758;2023-04-25T07:26:12;9.40;99.90
43858;DHT22;29507;51.284;5.758;2023-04-25T07:28:38;9.50;99.90
43858;DHT22;29507;51.284;5.758;2023-04-25T07:31:04;10.00;99.90
43858;DHT22;29507;51.284;5.758;2023-04-25T07:33:30;10.60;99.90
43858;DHT22;29507;51.284;5.758;2023-04-25T07:35:56;11.00;99.90
43858;DHT22;29507;51.284;5.758;2023-04-25T07:38:22;11.50;99.90
43858;DHT22;29507;51.284;5.758;2023-04-25T07:40:48;12.10;99.30
43858;DHT22;29507;51.284;5.758;2023-04-25T07:43:14;12.30;96.60
43858;DHT22;29507;51.284;5.758;2023-04-25T07:45:45;12.50;95.70
43858;DHT22;29507;51.284;5.758;2023-04-25T07:48:10;12.60;95.90
43858;DHT22;29507;51.284;5.758;2023-04-25T07:50:36;12.90;95.40
43858;DHT22;29507;51.284;5.758;2023-04-25T07:53:02;13.20;94.80
43858;DHT22;29507;51.284;5.758;2023-04-25T07:55:28;13.40;94.10
43858;DHT22;29507;51.284;5.758;2023-04-25T07:57:54;13.70;91.80
43858;DHT22;29507;51.284;5.758;2023-04-25T08:00:19;13.60;90.20
43858;DHT22;29507;51.284;5.758;2023-04-25T08:02:45;13.30;91.00
43858;DHT22;29507;51.284;5.758;2023-04-25T08:05:11;13.10;91.10
43858;DHT22;29507;51.284;5.758;2023-04-25T08:07:40;13.20;92.30
43858;DHT22;29507;51.284;5.758;2023-04-25T08:10:06;13.20;91.60
43858;DHT22;29507;51.284;5.758;2023-04-25T08:12:32;13.10;91.40
43858;DHT22;29507;51.284;5.758;2023-04-25T08:14:58;13.20;90.40
43858;DHT22;29507;51.284;5.758;2023-04-25T08:17:24;13.20;90.30
43858;DHT22;29507;51.284;5.758;2023-04-25T08:19:49;13.30;89.00
43858;DHT22;29507;51.284;5.758;2023-04-25T08:22:15;13.20;89.30
43858;DHT22;29507;51.284;5.758;2023-04-25T08:24:41;13.00;88.00
43858;DHT22;29507;51.284;5.758;2023-04-25T08:27:07;12.30;88.10
43858;DHT22;29507;51.284;5.758;2023-04-25T08:29:34;12.30;89.20
43858;DHT22;29507;51.284;5.758;2023-04-25T08:32:00;12.80;89.50
43858;DHT22;29507;51.284;5.758;2023-04-25T08:34:26;13.20;86.40
43858;DHT22;29507;51.284;5.758;2023-04-25T08:36:52;13.50;85.90
43858;DHT22;29507;51.284;5.758;2023-04-25T08:39:17;13.60;86.10
43858;DHT22;29507;51.284;5.758;2023-04-25T08:41:43;13.10;88.70
43858;DHT22;29507;51.284;5.758;2023-04-25T08:44:12;12.40;89.80
43858;DHT22;29507;51.284;5.758;2023-04-25T08:46:38;11.70;91.10
43858;DHT22;29507;51.284;5.758;2023-04-25T08:49:06;11.30;91.30
43858;DHT22;29507;51.284;5.758;2023-04-25T08:51:32;11.80;92.40
43858;DHT22;29507;51.284;5.758;2023-04-25T08:54:11;12.40;88.30
43858;DHT22;29507;51.284;5.758;2023-04-25T08:56:41;12.20;90.00
43858;DHT22;29507;51.284;5.758;2023-04-25T08:59:09;12.00;90.40
43858;DHT22;29507;51.284;5.758;2023-04-25T09:01:35;11.70;90.00
43858;DHT22;29507;51.284;5.758;2023-04-25T09:04:01;11.30;91.20
43858;DHT22;29507;51.284;5.758;2023-04-25T09:06:28;11.10;92.00
43858;DHT22;29507;51.284;5.758;2023-04-25T09:08:54;10.90;92.20
43858;DHT22;29507;51.284;5.758;2023-04-25T09:11:20;11.00;91.00
43858;DHT22;29507;51.284;5.758;2023-04-25T09:13:45;11.00;91.90
43858;DHT22;29507;51.284;5.758;2023-04-25T09:16:11;11.10;90.40
43858;DHT22;29507;51.284;5.758;2023-04-25T09:18:37;11.10;89.20
43858;DHT22;29507;51.284;5.758;2023-04-25T09:21:07;11.00;89.20
43858;DHT22;29507;51.284;5.758;2023-04-25T09:23:44;10.80;90.20
43858;DHT22;29507;51.284;5.758;2023-04-25T09:26:17;10.70;89.30
43858;DHT22;29507;51.284;5.758;2023-04-25T09:28:43;10.60;90.30
43858;DHT22;29507;51.284;5.758;2023-04-25T09:31:12;10.60;90.50
43858;DHT22;29507;51.284;5.758;2023-04-25T09:33:37;10.50;90.90
43858;DHT22;29507;51.284;5.758;2023-04-25T09:36:04;10.50;90.90
43858;DHT22;29507;51.284;5.758;2023-04-25T09:38:32;10.30;91.10
43858;DHT22;29507;51.284;5.758;2023-04-25T09:40:58;10.20;91.20
43858;DHT22;29507;51.284;5.758;2023-04-25T09:43:24;10.00;92.50
43858;DHT22;29507;51.284;5.758;2023-04-25T09:45:54;9.90;92.70
43858;DHT22;29507;51.284;5.758;2023-04-25T09:48:24;10.00;92.30
43858;DHT22;29507;51.284;5.758;2023-04-25T09:51:10;10.10;93.00
43858;DHT22;29507;51.284;5.758;2023-04-25T09:53:37;10.30;92.50
43858;DHT22;29507;51.284;5.758;2023-04-25T09:56:04;10.60;91.90
43858;DHT22;29507;51.284;5.758;2023-04-25T09:58:31;11.00;92.10
43858;DHT22;29507;51.284;5.758;2023-04-25T10:01:00;11.40;92.40
43858;DHT22;29507;51.284;5.758;2023-04-25T10:03:30;11.80;90.00
43858;DHT22;29507;51.284;5.758;2023-04-25T10:06:00;11.80;90.00
43858;DHT22;29507;51.284;5.758;2023-04-25T10:08:31;12.10;89.60
43858;DHT22;29507;51.284;5.758;2023-04-25T10:11:02;12.60;86.40
43858;DHT22;29507;51.284;5.758;2023-04-25T10:13:29;12.70;88.30
43858;DHT22;29507;51.284;5.758;2023-04-25T10:15:56;13.10;88.50
43858;DHT22;29507;51.284;5.758;2023-04-25T10:18:24;13.50;87.30
43858;DHT22;29507;51.284;5.758;2023-04-25T10:20:50;13.70;85.80
43858;DHT22;29507;51.284;5.758;2023-04-25T10:23:16;13.50;84.80
43858;DHT22;29507;51.284;5.758;2023-04-25T10:25:42;13.20;83.40
43858;DHT22;29507;51.284;5.758;2023-04-25T10:28:08;13.00;83.30
43858;DHT22;29507;51.284;5.758;2023-04-25T10:30:34;12.90;84.10
43858;DHT22;29507;51.284;5.758;2023-04-25T10:33:00;13.10;83.80
43858;DHT22;29507;51.284;5.758;2023-04-25T10:35:26;13.10;82.10
43858;DHT22;29507;51.284;5.758;2023-04-25T10:38:15;13.00;82.70
43858;DHT22;29507;51.284;5.758;2023-04-25T10:40:41;13.00;83.30
43858;DHT22;29507;51.284;5.758;2023-04-25T10:45:54;12.70;83.20
43858;DHT22;29507;51.284;5.758;2023-04-25T10:48:26;12.80;82.60
43858;DHT22;29507;51.284;5.758;2023-04-25T10:51:16;13.70;82.50
43858;DHT22;29507;51.284;5.758;2023-04-25T10:56:38;14.70;78.60
43858;DHT22;29507;51.284;5.758;2023-04-25T10:59:16;14.50;79.90
43858;DHT22;29507;51.284;5.758;2023-04-25T11:01:47;14.70;80.70
43858;DHT22;29507;51.284;5.758;2023-04-25T11:04:24;14.80;80.30
43858;DHT22;29507;51.284;5.758;2023-04-25T11:07:05;14.30;79.00
43858;DHT22;29507;51.284;5.758;2023-04-25T11:09:34;14.50;80.20
43858;DHT22;29507;51.284;5.758;2023-04-25T11:12:00;14.50;79.40
43858;DHT22;29507;51.284;5.758;2023-04-25T11:14:26;14.80;81.00
43858;DHT22;29507;51.284;5.758;2023-04-25T11:16:59;14.60;78.30
43858;DHT22;29507;51.284;5.758;2023-04-25T11:19:26;14.50;83.60
43858;DHT22;29507;51.284;5.758;2023-04-25T11:21:55;14.60;79.50
43858;DHT22;29507;51.284;5.758;2023-04-25T11:24:29;14.20;77.90
43858;DHT22;29507;51.284;5.758;2023-04-25T11:26:55;14.50;79.80
43858;DHT22;29507;51.284;5.758;2023-04-25T11:29:26;13.90;76.50
43858;DHT22;29507;51.284;5.758;2023-04-25T11:31:52;13.30;78.80
43858;DHT22;29507;51.284;5.758;2023-04-25T11:34:19;12.80;79.20
43858;DHT22;29507;51.284;5.758;2023-04-25T11:36:45;12.40;82.10
43858;DHT22;29507;51.284;5.758;2023-04-25T11:39:11;12.30;79.90
43858;DHT22;29507;51.284;5.758;2023-04-25T11:41:38;12.10;79.70
43858;DHT22;29507;51.284;5.758;2023-04-25T11:44:04;12.00;80.10
43858;DHT22;29507;51.284;5.758;2023-04-25T11:46:30;12.00;82.50
43858;DHT22;29507;51.284;5.758;2023-04-25T11:48:57;12.20;82.50
43858;DHT22;29507;51.284;5.758;2023-04-25T11:51:22;12.20;83.00
43858;DHT22;29507;51.284;5.758;2023-04-25T11:53:48;12.40;82.20
43858;DHT22;29507;51.284;5.758;2023-04-25T11:56:14;12.30;80.60
43858;DHT22;29507;51.284;5.758;2023-04-25T11:59:15;12.40;80.10
43858;DHT22;29507;51.284;5.758;2023-04-25T12:01:48;12.80;81.00
43858;DHT22;29507;51.284;5.758;2023-04-25T12:04:18;13.50;77.90
43858;DHT22;29507;51.284;5.758;2023-04-25T12:06:46;13.90;77.30
43858;DHT22;29507;51.284;5.758;2023-04-25T12:09:38;13.90;78.60
43858;DHT22;29507;51.284;5.758;2023-04-25T12:12:02;13.80;80.00
43858;DHT22;29507;51.284;5.758;2023-04-25T12:14:30;13.00;81.40
43858;DHT22;29507;51.284;5.758;2023-04-25T12:16:58;12.00;84.40
43858;DHT22;29507;51.284;5.758;2023-04-25T12:19:24;11.20;88.20
43858;DHT22;29507;51.284;5.758;2023-04-25T12:21:51;10.80;89.80
43858;DHT22;29507;51.284;5.758;2023-04-25T12:24:25;10.30;90.70
43858;DHT22;29507;51.284;5.758;2023-04-25T12:27:04;9.90;92.00
43858;DHT22;29507;51.284;5.758;2023-04-25T12:29:31;9.70;92.90
43858;DHT22;29507;51.284;5.758;2023-04-25T12:31:58;9.50;92.70
43858;DHT22;29507;51.284;5.758;2023-04-25T12:34:24;9.40;93.00
43858;DHT22;29507;51.284;5.758;2023-04-25T12:36:51;9.30;93.90
43858;DHT22;29507;51.284;5.758;2023-04-25T12:39:17;9.10;95.00
43858;DHT22;29507;51.284;5.758;2023-04-25T12:41:44;8.90;95.70
43858;DHT22;29507;51.284;5.758;2023-04-25T12:44:10;8.90;94.70
43858;DHT22;29507;51.284;5.758;2023-04-25T12:46:36;9.00;94.80
43858;DHT22;29507;51.284;5.758;2023-04-25T12:49:02;9.20;94.00
43858;DHT22;29507;51.284;5.758;2023-04-25T12:51:29;9.50;94.10
43858;DHT22;29507;51.284;5.758;2023-04-25T12:53:54;10.80;94.30
43858;DHT22;29507;51.284;5.758;2023-04-25T12:56:20;12.70;92.10
43858;DHT22;29507;51.284;5.758;2023-04-25T12:58:46;12.70;90.50
43858;DHT22;29507;51.284;5.758;2023-04-25T13:01:13;13.60;89.90
43858;DHT22;29507;51.284;5.758;2023-04-25T13:03:39;14.30;84.40
43858;DHT22;29507;51.284;5.758;2023-04-25T13:06:08;14.60;83.80
43858;DHT22;29507;51.284;5.758;2023-04-25T13:08:34;15.90;84.90
43858;DHT22;29507;51.284;5.758;2023-04-25T13:11:02;16.90;79.80
43858;DHT22;29507;51.284;5.758;2023-04-25T13:13:28;17.10;77.60
43858;DHT22;29507;51.284;5.758;2023-04-25T13:15:54;15.90;74.70
43858;DHT22;29507;51.284;5.758;2023-04-25T13:18:20;14.60;75.90
43858;DHT22;29507;51.284;5.758;2023-04-25T13:20:45;14.10;79.80
43858;DHT22;29507;51.284;5.758;2023-04-25T13:23:11;14.10;78.20
43858;DHT22;29507;51.284;5.758;2023-04-25T13:25:37;13.70;79.20
43858;DHT22;29507;51.284;5.758;2023-04-25T13:28:03;14.10;78.90
43858;DHT22;29507;51.284;5.758;2023-04-25T13:30:28;13.80;77.20
43858;DHT22;29507;51.284;5.758;2023-04-25T13:32:54;13.40;77.50
43858;DHT22;29507;51.284;5.758;2023-04-25T13:35:22;14.30;75.50
43858;DHT22;29507;51.284;5.758;2023-04-25T13:37:47;14.90;72.80
43858;DHT22;29507;51.284;5.758;2023-04-25T13:40:13;14.60;72.10
43858;DHT22;29507;51.284;5.758;2023-04-25T13:42:39;14.00;74.20
43858;DHT22;29507;51.284;5.758;2023-04-25T13:45:06;13.60;74.30
43858;DHT22;29507;51.284;5.758;2023-04-25T13:47:32;13.20;72.00
43858;DHT22;29507;51.284;5.758;2023-04-25T13:49:57;12.90;74.20
43858;DHT22;29507;51.284;5.758;2023-04-25T13:52:23;12.60;75.20
43858;DHT22;29507;51.284;5.758;2023-04-25T13:54:52;12.40;73.10
43858;DHT22;29507;51.284;5.758;2023-04-25T13:57:18;12.20;73.90
43858;DHT22;29507;51.284;5.758;2023-04-25T13:59:43;12.10;75.60
43858;DHT22;29507;51.284;5.758;2023-04-25T14:02:09;12.10;76.20
43858;DHT22;29507;51.284;5.758;2023-04-25T14:04:34;11.90;77.80
43858;DHT22;29507;51.284;5.758;2023-04-25T14:07:00;11.90;76.70
43858;DHT22;29507;51.284;5.758;2023-04-25T14:09:27;11.80;80.80
43858;DHT22;29507;51.284;5.758;2023-04-25T14:11:53;11.70;82.10
43858;DHT22;29507;51.284;5.758;2023-04-25T14:14:19;11.50;83.20
43858;DHT22;29507;51.284;5.758;2023-04-25T14:16:46;11.30;80.80
43858;DHT22;29507;51.284;5.758;2023-04-25T14:19:16;11.20;81.80
43858;DHT22;29507;51.284;5.758;2023-04-25T14:21:42;11.20;82.10
43858;DHT22;29507;51.284;5.758;2023-04-25T14:24:11;11.20;81.70
43858;DHT22;29507;51.284;5.758;2023-04-25T14:26:37;11.40;82.90
43858;DHT22;29507;51.284;5.758;2023-04-25T14:29:04;11.70;82.70
43858;DHT22;29507;51.284;5.758;2023-04-25T14:31:31;12.00;81.20
43858;DHT22;29507;51.284;5.758;2023-04-25T14:33:56;12.80;82.00
43858;DHT22;29507;51.284;5.758;2023-04-25T14:36:22;13.80;80.60
43858;DHT22;29507;51.284;5.758;2023-04-25T14:38:47;14.10;75.50
43858;DHT22;29507;51.284;5.758;2023-04-25T14:41:15;13.40;74.90
43858;DHT22;29507;51.284;5.758;2023-04-25T14:43:41;12.60;75.10
43858;DHT22;29507;51.284;5.758;2023-04-25T14:46:06;12.50;75.40
43858;DHT22;29507;51.284;5.758;2023-04-25T14:48:33;12.60;75.00
43858;DHT22;29507;51.284;5.758;2023-04-25T14:50:59;12.20;77.50
43858;DHT22;29507;51.284;5.758;2023-04-25T14:53:25;11.90;76.30
43858;DHT22;29507;51.284;5.758;2023-04-25T14:55:52;11.70;76.70
43858;DHT22;29507;51.284;5.758;2023-04-25T14:58:17;11.50;78.30
43858;DHT22;29507;51.284;5.758;2023-04-25T15:00:43;11.50;76.90
43858;DHT22;29507;51.284;5.758;2023-04-25T15:03:09;12.00;78.20
43858;DHT22;29507;51.284;5.758;2023-04-25T15:05:37;12.70;74.00
43858;DHT22;29507;51.284;5.758;2023-04-25T15:08:03;12.70;74.50
43858;DHT22;29507;51.284;5.758;2023-04-25T15:10:29;12.30;77.70
43858;DHT22;29507;51.284;5.758;2023-04-25T15:12:55;11.90;82.40
43858;DHT22;29507;51.284;5.758;2023-04-25T15:15:20;11.40;85.80
43858;DHT22;29507;51.284;5.758;2023-04-25T15:17:47;11.10;87.00
43858;DHT22;29507;51.284;5.758;2023-04-25T15:20:13;10.80;88.80
43858;DHT22;29507;51.284;5.758;2023-04-25T15:22:40;10.70;88.20
43858;DHT22;29507;51.284;5.758;2023-04-25T15:25:07;10.50;87.20
43858;DHT22;29507;51.284;5.758;2023-04-25T15:27:34;10.40;88.80
43858;DHT22;29507;51.284;5.758;2023-04-25T15:30:06;10.30;87.30
43858;DHT22;29507;51.284;5.758;2023-04-25T15:32:32;10.30;87.80
43858;DHT22;29507;51.284;5.758;2023-04-25T15:34:57;10.20;87.40
43858;DHT22;29507;51.284;5.758;2023-04-25T15:37:23;10.20;87.80
43858;DHT22;29507;51.284;5.758;2023-04-25T15:40:09;10.30;87.20
43858;DHT22;29507;51.284;5.758;2023-04-25T15:42:40;10.40;85.70